sensor_id;sensor_type;location;lat;lon;timestamp;pressure;altitude;pressure_sealevel;temperature;humidity
47104;BME280;32853;52.164;5.400;2023-03-15T00:01:17;101080.72;;;4.57;100.00
47104;BME280;32853;52.164;5.400;2023-03-15T00:03:47;101076.38;;;4.57;100.00
47104;BME280;32853;52.164;5.400;2023-03-15T00:06:13;101073.09;;;4.42;100.00
47104;BME280;32853;52.164;5.400;2023-03-15T00:08:52;101076.56;;;4.39;100.00
47104;BME280;32853;52.164;5.400;2023-03-15T00:11:19;101074.81;;;4.41;100.00
47104;BME280;32853;52.164;5.400;2023-03-15T00:13:45;101075.72;;;4.38;100.00
47104;BME280;32853;52.164;5.400;2023-03-15T00:16:10;101078.25;;;4.45;100.00
47104;BME280;32853;52.164;5.400;2023-03-15T00:18:36;101075.56;;;4.52;100.00
47104;BME280;32853;52.164;5.400;2023-03-15T00:21:12;101077.28;;;4.53;100.00
47104;BME280;32853;52.164;5.400;2023-03-15T00:23:49;101087.63;;;4.53;100.00
47104;BME280;32853;52.164;5.400;2023-03-15T00:26:17;101085.84;;;4.60;100.00
47104;BME280;32853;52.164;5.400;2023-03-15T00:28:43;101082.34;;;4.62;100.00
47104;BME280;32853;52.164;5.400;2023-03-15T00:31:20;101079.75;;;4.64;100.00
47104;BME280;32853;52.164;5.400;2023-03-15T00:33:46;101084.03;;;4.65;100.00
47104;BME280;32853;52.164;5.400;2023-03-15T00:36:12;101088.44;;;4.60;100.00
47104;BME280;32853;52.164;5.400;2023-03-15T00:38:43;101086.63;;;4.65;100.00
47104;BME280;32853;52.164;5.400;2023-03-15T00:41:10;101086.56;;;4.73;100.00
47104;BME280;32853;52.164;5.400;2023-03-15T00:43:37;101090.06;;;4.69;100.00
47104;BME280;32853;52.164;5.400;2023-03-15T00:46:08;101093.56;;;4.66;100.00
47104;BME280;32853;52.164;5.400;2023-03-15T00:48:33;101095.22;;;4.70;100.00
47104;BME280;32853;52.164;5.400;2023-03-15T00:53:48;101104.72;;;4.71;100.00
47104;BME280;32853;52.164;5.400;2023-03-15T00:56:22;101099.50;;;4.73;100.00
47104;BME280;32853;52.164;5.400;2023-03-15T00:58:47;101106.38;;;4.75;100.00
47104;BME280;32853;52.164;5.400;2023-03-15T01:01:17;101107.13;;;4.85;100.00
47104;BME280;32853;52.164;5.400;2023-03-15T01:03:43;101108.97;;;4.77;100.00
47104;BME280;32853;52.164;5.400;2023-03-15T01:08:47;101118.47;;;4.78;100.00
47104;BME280;32853;52.164;5.400;2023-03-15T01:11:21;101125.38;;;4.77;100.00
47104;BME280;32853;52.164;5.400;2023-03-15T01:13:48;101124.50;;;4.78;100.00
47104;BME280;32853;52.164;5.400;2023-03-15T01:16:13;101129.63;;;4.83;100.00
47104;BME280;32853;52.164;5.400;2023-03-15T01:18:49;101128.69;;;4.87;100.00
47104;BME280;32853;52.164;5.400;2023-03-15T01:21:21;101128.03;;;4.71;100.00
47104;BME280;32853;52.164;5.400;2023-03-15T01:23:51;101140.06;;;4.77;100.00
47104;BME280;32853;52.164;5.400;2023-03-15T01:26:29;101138.28;;;4.82;100.00
47104;BME280;32853;52.164;5.400;2023-03-15T01:28:54;101142.72;;;4.71;100.00
47104;BME280;32853;52.164;5.400;2023-03-15T01:33:45;101141.66;;;4.87;100.00
47104;BME280;32853;52.164;5.400;2023-03-15T01:36:12;101143.41;;;4.88;100.00
47104;BME280;32853;52.164;5.400;2023-03-15T01:38:37;101148.66;;;4.80;100.00
47104;BME280;32853;52.164;5.400;2023-03-15T01:41:03;101150.34;;;4.84;100.00
47104;BME280;32853;52.164;5.400;2023-03-15T01:43:29;101153.78;;;4.85;100.00
47104;BME280;32853;52.164;5.400;2023-03-15T01:54:14;101155.81;;;4.58;100.00
47104;BME280;32853;52.164;5.400;2023-03-15T01:56:43;101164.31;;;4.70;100.00
47104;BME280;32853;52.164;5.400;2023-03-15T02:01:41;101162.56;;;4.72;100.00
47104;BME280;32853;52.164;5.400;2023-03-15T02:04:15;101172.06;;;4.71;100.00
47104;BME280;32853;52.164;5.400;2023-03-15T02:06:42;101170.31;;;4.73;100.00
47104;BME280;32853;52.164;5.400;2023-03-15T02:09:14;101173.88;;;4.63;100.00
47104;BME280;32853;52.164;5.400;2023-03-15T02:11:47;101171.22;;;4.71;100.00
47104;BME280;32853;52.164;5.400;2023-03-15T02:14:13;101177.25;;;4.71;100.00
47104;BME280;32853;52.164;5.400;2023-03-15T02:16:39;101178.09;;;4.73;100.00
47104;BME280;32853;52.164;5.400;2023-03-15T02:22:15;101181.75;;;4.55;100.00
47104;BME280;32853;52.164;5.400;2023-03-15T02:24:52;101182.69;;;4.47;100.00
47104;BME280;32853;52.164;5.400;2023-03-15T02:30:08;101195.44;;;4.66;100.00
47104;BME280;32853;52.164;5.400;2023-03-15T02:32:34;101198.91;;;4.64;100.00
47104;BME280;32853;52.164;5.400;2023-03-15T02:37:45;101199.78;;;4.63;100.00
47104;BME280;32853;52.164;5.400;2023-03-15T02:40:15;101199.88;;;4.55;100.00
47104;BME280;32853;52.164;5.400;2023-03-15T02:42:45;101209.38;;;4.52;100.00
47104;BME280;32853;52.164;5.400;2023-03-15T02:45:11;101211.16;;;4.47;100.00
47104;BME280;32853;52.164;5.400;2023-03-15T02:47:53;101217.13;;;4.56;100.00
47104;BME280;32853;52.164;5.400;2023-03-15T02:50:19;101216.28;;;4.51;100.00
47104;BME280;32853;52.164;5.400;2023-03-15T02:55:43;101232.69;;;4.55;100.00
47104;BME280;32853;52.164;5.400;2023-03-15T02:58:12;101235.25;;;4.53;100.00
47104;BME280;32853;52.164;5.400;2023-03-15T03:00:38;101235.28;;;4.55;100.00
47104;BME280;32853;52.164;5.400;2023-03-15T03:03:04;101249.09;;;4.52;100.00
47104;BME280;32853;52.164;5.400;2023-03-15T03:05:29;101257.72;;;4.56;100.00
47104;BME280;32853;52.164;5.400;2023-03-15T03:07:58;101250.81;;;4.52;100.00
47104;BME280;32853;52.164;5.400;2023-03-15T03:10:26;101250.81;;;4.56;100.00
47104;BME280;32853;52.164;5.400;2023-03-15T03:13:01;101261.28;;;4.41;100.00
47104;BME280;32853;52.164;5.400;2023-03-15T03:15:26;101263.75;;;4.53;100.00
47104;BME280;32853;52.164;5.400;2023-03-15T03:17:59;101269.00;;;4.47;100.00
47104;BME280;32853;52.164;5.400;2023-03-15T03:20:24;101283.72;;;4.44;100.00
47104;BME280;32853;52.164;5.400;2023-03-15T03:25:51;101276.78;;;4.43;100.00
47104;BME280;32853;52.164;5.400;2023-03-15T03:28:26;101285.44;;;4.45;100.00
47104;BME280;32853;52.164;5.400;2023-03-15T03:30:58;101284.56;;;4.46;100.00
47104;BME280;32853;52.164;5.400;2023-03-15T03:33:34;101292.28;;;4.49;100.00
47104;BME280;32853;52.164;5.400;2023-03-15T03:36:12;101291.38;;;4.53;100.00
47104;BME280;32853;52.164;5.400;2023-03-15T03:38:54;101298.31;;;4.55;100.00
47104;BME280;32853;52.164;5.400;2023-03-15T03:41:20;101312.09;;;4.57;100.00
47104;BME280;32853;52.164;5.400;2023-03-15T03:43:49;101312.09;;;4.54;100.00
47104;BME280;32853;52.164;5.400;2023-03-15T03:46:17;101315.59;;;4.49;100.00
47104;BME280;32853;52.164;5.400;2023-03-15T03:48:43;101238.31;;;3.94;100.00
47104;BME280;32853;52.164;5.400;2023-03-15T03:51:08;101325.09;;;4.50;100.00
47104;BME280;32853;52.164;5.400;2023-03-15T03:53:33;101322.53;;;4.47;100.00
47104;BME280;32853;52.164;5.400;2023-03-15T03:55:58;101329.38;;;4.52;100.00
47104;BME280;32853;52.164;5.400;2023-03-15T03:58:25;101332.00;;;4.51;100.00
47104;BME280;32853;52.164;5.400;2023-03-15T04:00:50;101331.22;;;4.36;100.00
47104;BME280;32853;52.164;5.400;2023-03-15T04:03:18;101337.25;;;4.38;100.00
47104;BME280;32853;52.164;5.400;2023-03-15T04:05:49;101341.53;;;4.47;100.00
47104;BME280;32853;52.164;5.400;2023-03-15T04:08:32;101337.22;;;4.46;100.00
47104;BME280;32853;52.164;5.400;2023-03-15T04:13:29;101346.72;;;4.43;100.00
47104;BME280;32853;52.164;5.400;2023-03-15T04:21:54;101364.00;;;4.44;100.00
47104;BME280;32853;52.164;5.400;2023-03-15T04:24:33;101358.81;;;4.45;100.00
47104;BME280;32853;52.164;5.400;2023-03-15T04:27:01;101363.13;;;4.46;100.00
47104;BME280;32853;52.164;5.400;2023-03-15T04:29:26;101365.72;;;4.45;100.00
47104;BME280;32853;52.164;5.400;2023-03-15T04:35:03;101381.25;;;4.42;100.00
47104;BME280;32853;52.164;5.400;2023-03-15T04:37:43;101383.81;;;4.43;100.00
47104;BME280;32853;52.164;5.400;2023-03-15T04:40:09;101381.28;;;4.38;100.00
47104;BME280;32853;52.164;5.400;2023-03-15T04:42:51;101388.22;;;4.33;100.00
47104;BME280;32853;52.164;5.400;2023-03-15T04:45:25;101387.34;;;4.34;100.00
47104;BME280;32853;52.164;5.400;2023-03-15T04:47:59;101394.31;;;4.25;100.00
47104;BME280;32853;52.164;5.400;2023-03-15T04:50:25;101401.22;;;4.23;100.00
47104;BME280;32853;52.164;5.400;2023-03-15T04:52:52;101404.63;;;4.28;100.00
47104;BME280;32853;52.164;5.400;2023-03-15T04:55:29;101404.66;;;4.26;100.00
47104;BME280;32853;52.164;5.400;2023-03-15T04:57:54;101403.81;;;4.23;100.00
47104;BME280;32853;52.164;5.400;2023-03-15T05:00:23;101410.72;;;4.22;100.00
47104;BME280;32853;52.164;5.400;2023-03-15T05:02:49;101416.75;;;4.20;100.00
47104;BME280;32853;52.164;5.400;2023-03-15T05:05:31;101420.22;;;4.19;100.00
47104;BME280;32853;52.164;5.400;2023-03-15T05:08:06;101419.34;;;4.23;100.00
47104;BME280;32853;52.164;5.400;2023-03-15T05:13:25;101432.28;;;4.18;100.00
47104;BME280;32853;52.164;5.400;2023-03-15T05:15:50;101440.06;;;4.18;100.00
47104;BME280;32853;52.164;5.400;2023-03-15T05:18:15;101449.56;;;4.18;100.00
47104;BME280;32853;52.164;5.400;2023-03-15T05:20:52;101457.34;;;4.08;100.00
47104;BME280;32853;52.164;5.400;2023-03-15T05:23:19;101459.09;;;4.06;100.00
47104;BME280;32853;52.164;5.400;2023-03-15T05:25:53;101466.03;;;4.00;100.00
47104;BME280;32853;52.164;5.400;2023-03-15T05:28:19;101466.88;;;3.97;100.00
47104;BME280;32853;52.164;5.400;2023-03-15T05:30:49;101466.88;;;4.02;100.00
47104;BME280;32853;52.164;5.400;2023-03-15T05:33:26;101472.88;;;4.07;100.00
47104;BME280;32853;52.164;5.400;2023-03-15T05:35:51;101469.44;;;4.11;100.00
47104;BME280;32853;52.164;5.400;2023-03-15T05:40:53;101470.31;;;4.05;100.00
47104;BME280;32853;52.164;5.400;2023-03-15T05:43:20;101482.34;;;4.09;100.00
47104;BME280;32853;52.164;5.400;2023-03-15T05:45:45;101481.50;;;4.07;100.00
47104;BME280;32853;52.164;5.400;2023-03-15T05:48:12;101471.16;;;4.06;100.00
47104;BME280;32853;52.164;5.400;2023-03-15T05:50:37;101480.66;;;4.07;100.00
47104;BME280;32853;52.164;5.400;2023-03-15T05:53:02;101481.50;;;4.09;100.00
47104;BME280;32853;52.164;5.400;2023-03-15T05:55:28;101491.00;;;4.15;100.00
47104;BME280;32853;52.164;5.400;2023-03-15T05:57:53;101495.31;;;4.08;100.00
47104;BME280;32853;52.164;5.400;2023-03-15T06:00:18;101506.59;;;3.83;100.00
47104;BME280;32853;52.164;5.400;2023-03-15T06:02:44;101518.63;;;3.99;100.00
47104;BME280;32853;52.164;5.400;2023-03-15T06:05:09;101519.50;;;3.99;100.00
47104;BME280;32853;52.164;5.400;2023-03-15T06:07:34;101525.53;;;3.98;100.00
47104;BME280;32853;52.164;5.400;2023-03-15T06:10:00;101535.03;;;4.01;100.00
47104;BME280;32853;52.164;5.400;2023-03-15T06:12:25;101536.75;;;4.05;100.00
47104;BME280;32853;52.164;5.400;2023-03-15T06:14:50;101544.53;;;4.02;100.00
47104;BME280;32853;52.164;5.400;2023-03-15T06:17:15;101541.94;;;4.00;100.00
47104;BME280;32853;52.164;5.400;2023-03-15T06:19:41;101550.53;;;4.04;100.00
47104;BME280;32853;52.164;5.400;2023-03-15T06:22:06;101554.88;;;4.02;100.00
47104;BME280;32853;52.164;5.400;2023-03-15T06:24:33;101558.31;;;4.01;100.00
47104;BME280;32853;52.164;5.400;2023-03-15T06:26:59;101551.44;;;4.00;100.00
47104;BME280;32853;52.164;5.400;2023-03-15T06:29:27;101549.69;;;4.00;100.00
47104;BME280;32853;52.164;5.400;2023-03-15T06:31:52;101554.00;;;3.94;100.00
47104;BME280;32853;52.164;5.400;2023-03-15T06:34:18;101564.34;;;3.97;100.00
47104;BME280;32853;52.164;5.400;2023-03-15T06:36:53;101564.38;;;4.00;100.00
47104;BME280;32853;52.164;5.400;2023-03-15T06:39:31;101573.84;;;4.02;100.00
47104;BME280;32853;52.164;5.400;2023-03-15T06:41:59;101577.28;;;3.95;100.00
47104;BME280;32853;52.164;5.400;2023-03-15T06:44:26;101585.06;;;3.97;100.00
47104;BME280;32853;52.164;5.400;2023-03-15T06:46:51;101582.47;;;4.00;100.00
47104;BME280;32853;52.164;5.400;2023-03-15T06:49:19;101589.34;;;4.07;100.00
47104;BME280;32853;52.164;5.400;2023-03-15T06:51:48;101587.66;;;4.04;100.00
47104;BME280;32853;52.164;5.400;2023-03-15T06:54:13;101592.81;;;4.06;100.00
47104;BME280;32853;52.164;5.400;2023-03-15T06:56:39;101595.41;;;4.06;100.00
47104;BME280;32853;52.164;5.400;2023-03-15T06:59:05;101597.97;;;4.09;100.00
47104;BME280;32853;52.164;5.400;2023-03-15T07:04:01;101622.13;;;4.17;100.00
47104;BME280;32853;52.164;5.400;2023-03-15T07:06:27;101624.72;;;4.17;100.00
47104;BME280;32853;52.164;5.400;2023-03-15T07:08:58;101624.72;;;4.17;100.00
47104;BME280;32853;52.164;5.400;2023-03-15T07:11:23;101626.47;;;4.24;100.00
47104;BME280;32853;52.164;5.400;2023-03-15T07:13:48;101632.47;;;4.29;100.00
47104;BME280;32853;52.164;5.400;2023-03-15T07:16:14;101631.59;;;4.30;100.00
47104;BME280;32853;52.164;5.400;2023-03-15T07:21:09;101632.50;;;4.32;100.00
47104;BME280;32853;52.164;5.400;2023-03-15T07:23:35;101629.03;;;4.36;100.00
47104;BME280;32853;52.164;5.400;2023-03-15T07:26:02;101636.78;;;4.40;100.00
47104;BME280;32853;52.164;5.400;2023-03-15T07:28:27;101640.22;;;4.40;100.00
47104;BME280;32853;52.164;5.400;2023-03-15T07:30:54;101645.41;;;4.48;100.00
47104;BME280;32853;52.164;5.400;2023-03-15T07:33:20;101649.69;;;4.52;100.00
47104;BME280;32853;52.164;5.400;2023-03-15T07:35:49;101655.75;;;4.52;100.00
47104;BME280;32853;52.164;5.400;2023-03-15T07:40:55;101664.38;;;4.68;100.00
47104;BME280;32853;52.164;5.400;2023-03-15T07:43:21;101662.63;;;4.70;100.00
47104;BME280;32853;52.164;5.400;2023-03-15T07:48:16;101672.94;;;4.91;100.00
47104;BME280;32853;52.164;5.400;2023-03-15T07:50:47;101683.31;;;4.91;100.00
47104;BME280;32853;52.164;5.400;2023-03-15T07:53:13;101679.00;;;4.89;100.00
47104;BME280;32853;52.164;5.400;2023-03-15T07:55:39;101682.38;;;5.08;100.00
47104;BME280;32853;52.164;5.400;2023-03-15T07:58:04;101682.38;;;5.12;100.00
47104;BME280;32853;52.164;5.400;2023-03-15T08:00:32;101688.38;;;5.25;100.00
47104;BME280;32853;52.164;5.400;2023-03-15T08:02:57;101692.69;;;5.18;100.00
47104;BME280;32853;52.164;5.400;2023-03-15T08:05:22;101693.56;;;5.20;100.00
47104;BME280;32853;52.164;5.400;2023-03-15T08:07:48;101697.84;;;5.28;100.00
47104;BME280;32853;52.164;5.400;2023-03-15T08:12:59;101706.44;;;5.43;100.00
47104;BME280;32853;52.164;5.400;2023-03-15T08:15:27;101709.03;;;5.43;100.00
47104;BME280;32853;52.164;5.400;2023-03-15T08:17:52;101708.09;;;5.58;100.00
47104;BME280;32853;52.164;5.400;2023-03-15T08:20:21;101710.63;;;5.69;100.00
47104;BME280;32853;52.164;5.400;2023-03-15T08:22:46;101716.63;;;5.78;100.00
47104;BME280;32853;52.164;5.400;2023-03-15T08:25:22;101717.44;;;5.90;100.00
47104;BME280;32853;52.164;5.400;2023-03-15T08:27:51;101716.53;;;5.97;100.00
47104;BME280;32853;52.164;5.400;2023-03-15T08:30:17;101724.31;;;6.00;100.00
47104;BME280;32853;52.164;5.400;2023-03-15T08:32:43;101722.59;;;5.96;100.00
47104;BME280;32853;52.164;5.400;2023-03-15T08:35:09;101719.97;;;6.00;100.00
47104;BME280;32853;52.164;5.400;2023-03-15T08:37:36;101734.66;;;6.04;100.00
47104;BME280;32853;52.164;5.400;2023-03-15T08:40:02;101734.44;;;6.35;100.00
47104;BME280;32853;52.164;5.400;2023-03-15T08:42:33;101734.31;;;6.49;100.00
47104;BME280;32853;52.164;5.400;2023-03-15T08:44:59;101741.19;;;6.57;100.00
47104;BME280;32853;52.164;5.400;2023-03-15T08:47:26;101750.72;;;6.54;100.00
47104;BME280;32853;52.164;5.400;2023-03-15T08:49:51;101744.91;;;6.26;100.00
47104;BME280;32853;52.164;5.400;2023-03-15T08:52:17;101752.47;;;6.53;100.00
47104;BME280;32853;52.164;5.400;2023-03-15T08:54:42;101759.41;;;6.54;100.00
47104;BME280;32853;52.164;5.400;2023-03-15T08:57:08;101752.25;;;6.78;100.00
47104;BME280;32853;52.164;5.400;2023-03-15T08:59:40;101751.38;;;6.76;100.00
47104;BME280;32853;52.164;5.400;2023-03-15T09:02:06;101754.78;;;6.84;100.00
47104;BME280;32853;52.164;5.400;2023-03-15T09:04:31;101759.00;;;6.98;100.00
47104;BME280;32853;52.164;5.400;2023-03-15T09:06:57;101748.53;;;7.03;100.00
47104;BME280;32853;52.164;5.400;2023-03-15T09:09:31;101755.41;;;7.10;100.00
47104;BME280;32853;52.164;5.400;2023-03-15T09:11:57;101757.75;;;7.30;100.00
47104;BME280;32853;52.164;5.400;2023-03-15T09:14:29;101758.50;;;7.43;100.00
47104;BME280;32853;52.164;5.400;2023-03-15T09:16:54;101765.44;;;7.41;100.00
47104;BME280;32853;52.164;5.400;2023-03-15T09:19:20;101766.16;;;7.52;100.00
47104;BME280;32853;52.164;5.400;2023-03-15T09:21:45;101758.44;;;7.47;100.00
47104;BME280;32853;52.164;5.400;2023-03-15T09:24:11;101756.75;;;7.43;100.00
47104;BME280;32853;52.164;5.400;2023-03-15T09:26:36;101754.81;;;7.59;100.00
47104;BME280;32853;52.164;5.400;2023-03-15T09:29:02;101758.97;;;7.72;100.00
47104;BME280;32853;52.164;5.400;2023-03-15T09:31:31;101757.28;;;7.68;100.00
47104;BME280;32853;52.164;5.400;2023-03-15T09:33:58;101757.19;;;7.77;100.00
47104;BME280;32853;52.164;5.400;2023-03-15T09:36:23;101764.03;;;7.83;100.00
47104;BME280;32853;52.164;5.400;2023-03-15T09:38:49;101758.06;;;7.76;100.00
47104;BME280;32853;52.164;5.400;2023-03-15T09:41:17;101765.56;;;7.96;100.00
47104;BME280;32853;52.164;5.400;2023-03-15T09:44:07;101767.16;;;8.09;100.00
47104;BME280;32853;52.164;5.400;2023-03-15T09:46:34;101771.28;;;8.23;100.00
47104;BME280;32853;52.164;5.400;2023-03-15T09:51:56;101776.31;;;8.36;100.00
47104;BME280;32853;52.164;5.400;2023-03-15T09:54:25;101768.84;;;8.09;89.46
47104;BME280;32853;52.164;5.400;2023-03-15T09:57:02;101770.50;;;8.16;96.47
47104;BME280;32853;52.164;5.400;2023-03-15T09:59:39;101777.97;;;8.40;95.41
47104;BME280;32853;52.164;5.400;2023-03-15T10:02:20;101770.63;;;8.65;99.56
47104;BME280;32853;52.164;5.400;2023-03-15T10:04:47;101770.38;;;8.79;99.23
47104;BME280;32853;52.164;5.400;2023-03-15T10:07:13;101765.91;;;8.86;96.52
47104;BME280;32853;52.164;5.400;2023-03-15T10:09:40;101769.88;;;9.07;88.82
47104;BME280;32853;52.164;5.400;2023-03-15T10:17:02;101759.63;;;8.96;77.14
47104;BME280;32853;52.164;5.400;2023-03-15T10:27:20;101752.44;;;9.53;72.49
47104;BME280;32853;52.164;5.400;2023-03-15T10:29:50;101761.47;;;9.79;74.17
47104;BME280;32853;52.164;5.400;2023-03-15T10:32:17;101763.13;;;9.81;70.61
47104;BME280;32853;52.164;5.400;2023-03-15T10:34:44;101757.78;;;9.87;69.69
47104;BME280;32853;52.164;5.400;2023-03-15T10:37:19;101760.13;;;10.00;65.38
47104;BME280;32853;52.164;5.400;2023-03-15T10:39:47;101771.72;;;9.88;64.55
47104;BME280;32853;52.164;5.400;2023-03-15T10:42:32;101776.13;;;9.84;69.89
47104;BME280;32853;52.164;5.400;2023-03-15T10:44:58;101786.94;;;9.68;64.20
47104;BME280;32853;52.164;5.400;2023-03-15T10:47:39;101786.75;;;9.75;62.55
47104;BME280;32853;52.164;5.400;2023-03-15T10:50:04;101795.22;;;9.46;62.12
47104;BME280;32853;52.164;5.400;2023-03-15T10:52:34;101792.78;;;9.80;61.71
47104;BME280;32853;52.164;5.400;2023-03-15T10:55:02;101800.97;;;10.04;57.98
47104;BME280;32853;52.164;5.400;2023-03-15T10:57:31;101803.31;;;9.76;57.01
47104;BME280;32853;52.164;5.400;2023-03-15T10:59:59;101814.06;;;10.02;59.58
47104;BME280;32853;52.164;5.400;2023-03-15T11:02:30;101812.00;;;10.16;57.73
47104;BME280;32853;52.164;5.400;2023-03-15T11:05:29;101812.81;;;10.22;57.40
47104;BME280;32853;52.164;5.400;2023-03-15T11:07:54;101815.97;;;10.36;59.82
47104;BME280;32853;52.164;5.400;2023-03-15T11:10:21;101822.78;;;10.43;56.26
47104;BME280;32853;52.164;5.400;2023-03-15T11:12:47;101829.31;;;10.24;56.90
47104;BME280;32853;52.164;5.400;2023-03-15T11:15:14;101830.19;;;10.60;59.24
47104;BME280;32853;52.164;5.400;2023-03-15T11:17:47;101829.50;;;10.89;57.28
47104;BME280;32853;52.164;5.400;2023-03-15T11:23:01;101830.75;;;11.06;52.98
47104;BME280;32853;52.164;5.400;2023-03-15T11:25:30;101834.69;;;10.90;52.73
47104;BME280;32853;52.164;5.400;2023-03-15T11:27:57;101833.38;;;11.06;54.33
47104;BME280;32853;52.164;5.400;2023-03-15T11:30:24;101829.97;;;11.37;55.18
47104;BME280;32853;52.164;5.400;2023-03-15T11:32:51;101834.47;;;11.32;53.77
47104;BME280;32853;52.164;5.400;2023-03-15T11:35:26;101823.50;;;10.84;50.92
47104;BME280;32853;52.164;5.400;2023-03-15T11:37:56;101836.84;;;10.73;51.71
47104;BME280;32853;52.164;5.400;2023-03-15T11:40:32;101823.28;;;10.57;51.67
47104;BME280;32853;52.164;5.400;2023-03-15T11:45:39;101816.13;;;10.99;52.89
47104;BME280;32853;52.164;5.400;2023-03-15T11:50:58;101820.91;;;11.16;52.76
47104;BME280;32853;52.164;5.400;2023-03-15T11:53:29;101776.53;;;11.12;51.58
47104;BME280;32853;52.164;5.400;2023-03-15T11:56:18;101765.53;;;10.66;49.70
47104;BME280;32853;52.164;5.400;2023-03-15T12:01:33;101761.78;;;11.07;50.91
47104;BME280;32853;52.164;5.400;2023-03-15T12:06:58;101762.06;;;10.98;47.82
47104;BME280;32853;52.164;5.400;2023-03-15T12:12:02;101816.91;;;11.67;48.36
47104;BME280;32853;52.164;5.400;2023-03-15T12:14:32;101807.94;;;11.75;47.87
47104;BME280;32853;52.164;5.400;2023-03-15T12:19:59;101819.16;;;11.80;47.03
47104;BME280;32853;52.164;5.400;2023-03-15T12:22:30;101819.66;;;11.93;48.64
47104;BME280;32853;52.164;5.400;2023-03-15T12:25:28;101824.16;;;12.17;48.73
47104;BME280;32853;52.164;5.400;2023-03-15T12:27:52;101824.66;;;12.57;45.30
47104;BME280;32853;52.164;5.400;2023-03-15T12:30:29;101821.03;;;12.61;47.21
47104;BME280;32853;52.164;5.400;2023-03-15T12:32:56;101755.66;;;12.00;46.07
47104;BME280;32853;52.164;5.400;2023-03-15T12:35:24;101807.75;;;12.39;45.28
47104;BME280;32853;52.164;5.400;2023-03-15T12:37:53;101825.25;;;12.38;44.89
47104;BME280;32853;52.164;5.400;2023-03-15T12:53:16;101816.19;;;12.48;41.01
47104;BME280;32853;52.164;5.400;2023-03-15T12:55:57;101774.66;;;12.07;42.59
47104;BME280;32853;52.164;5.400;2023-03-15T12:58:34;101826.53;;;12.53;43.83
47104;BME280;32853;52.164;5.400;2023-03-15T13:01:05;101786.84;;;12.36;43.20
47104;BME280;32853;52.164;5.400;2023-03-15T13:03:34;101770.66;;;12.49;40.70
47104;BME280;32853;52.164;5.400;2023-03-15T13:06:32;101820.81;;;12.93;43.13
47104;BME280;32853;52.164;5.400;2023-03-15T13:12:11;101819.31;;;12.86;41.48
47104;BME280;32853;52.164;5.400;2023-03-15T13:20:00;101789.75;;;12.55;43.41
47104;BME280;32853;52.164;5.400;2023-03-15T13:22:54;101800.78;;;13.16;42.52
47104;BME280;32853;52.164;5.400;2023-03-15T13:25:50;101791.97;;;13.43;42.72
47104;BME280;32853;52.164;5.400;2023-03-15T13:28:28;101786.06;;;13.60;42.85
47104;BME280;32853;52.164;5.400;2023-03-15T13:31:11;101789.78;;;13.04;41.44
47104;BME280;32853;52.164;5.400;2023-03-15T13:33:38;101789.47;;;13.14;42.30
47104;BME280;32853;52.164;5.400;2023-03-15T13:36:11;101813.19;;;13.12;42.81
47104;BME280;32853;52.164;5.400;2023-03-15T13:41:19;101811.00;;;13.25;43.92
47104;BME280;32853;52.164;5.400;2023-03-15T13:43:46;101807.47;;;13.26;43.46
47104;BME280;32853;52.164;5.400;2023-03-15T13:46:14;101820.22;;;12.85;41.19
47104;BME280;32853;52.164;5.400;2023-03-15T13:48:42;101816.91;;;13.31;40.91
47104;BME280;32853;52.164;5.400;2023-03-15T13:51:25;101821.44;;;13.51;40.85
47104;BME280;32853;52.164;5.400;2023-03-15T13:54:29;101808.78;;;13.13;41.64
47104;BME280;32853;52.164;5.400;2023-03-15T13:59:56;101792.16;;;13.12;40.51
47104;BME280;32853;52.164;5.400;2023-03-15T14:02:34;101822.47;;;13.47;41.28
47104;BME280;32853;52.164;5.400;2023-03-15T14:05:09;101802.19;;;13.01;41.14
47104;BME280;32853;52.164;5.400;2023-03-15T14:07:47;101818.19;;;13.20;40.00
47104;BME280;32853;52.164;5.400;2023-03-15T14:12:49;101826.69;;;13.01;40.91
47104;BME280;32853;52.164;5.400;2023-03-15T14:15:25;101832.22;;;12.92;40.38
47104;BME280;32853;52.164;5.400;2023-03-15T14:18:10;101833.84;;;12.96;40.91
47104;BME280;32853;52.164;5.400;2023-03-15T14:20:43;101737.47;;;12.22;40.64
47104;BME280;32853;52.164;5.400;2023-03-15T14:23:17;101781.44;;;12.40;39.59
47104;BME280;32853;52.164;5.400;2023-03-15T14:25:52;101823.88;;;12.55;41.22
47104;BME280;32853;52.164;5.400;2023-03-15T14:28:19;101827.28;;;12.57;40.39
47104;BME280;32853;52.164;5.400;2023-03-15T14:30:57;101825.72;;;12.51;39.65
47104;BME280;32853;52.164;5.400;2023-03-15T14:33:32;101830.47;;;12.66;40.78
47104;BME280;32853;52.164;5.400;2023-03-15T14:36:02;101832.88;;;12.46;40.78
47104;BME280;32853;52.164;5.400;2023-03-15T14:38:34;101838.19;;;12.44;40.72
47104;BME280;32853;52.164;5.400;2023-03-15T14:41:17;101817.91;;;12.21;40.36
47104;BME280;32853;52.164;5.400;2023-03-15T14:43:50;101832.13;;;12.42;40.30
47104;BME280;32853;52.164;5.400;2023-03-15T14:46:21;101826.56;;;12.51;41.45
47104;BME280;32853;52.164;5.400;2023-03-15T14:48:49;101814.81;;;12.09;39.93
47104;BME280;32853;52.164;5.400;2023-03-15T14:51:17;101818.28;;;12.37;40.29
47104;BME280;32853;52.164;5.400;2023-03-15T14:53:44;101827.69;;;12.71;41.26
47104;BME280;32853;52.164;5.400;2023-03-15T14:56:23;101772.19;;;12.02;40.13
47104;BME280;32853;52.164;5.400;2023-03-15T14:58:53;101685.91;;;11.37;41.74
47104;BME280;32853;52.164;5.400;2023-03-15T15:01:22;101829.88;;;12.30;40.27
47104;BME280;32853;52.164;5.400;2023-03-15T15:04:01;101788.56;;;12.10;41.60
47104;BME280;32853;52.164;5.400;2023-03-15T15:06:35;101777.72;;;12.21;40.83
47104;BME280;32853;52.164;5.400;2023-03-15T15:09:02;101793.69;;;12.13;40.16
47104;BME280;32853;52.164;5.400;2023-03-15T15:11:29;101764.59;;;11.93;40.10